Time;durP1;ratioP1;P1;durP2;ratioP2;P2;SDS_P1;SDS_P2;PMS_P1;PMS_P2;Temp;Humidity;BMP_temperature;BMP_pressure;BME280_temperature;BME280_humidity;BME280_pressure;Samples;Min_cycle;Max_cycle;Signal;HPM_P1;HPM_P2
2022/08/29 00:00:50;;;;;;;14.52;13.07;;;26.40;63.30;;;;;;4760277;55;21015;-31
2022/08/29 00:05:51;;;;;;;14.02;12.63;;;26.50;63.40;;;;;;4743118;55;21031;-27
2022/08/29 00:10:53;;;;;;;14.55;13.15;;;26.40;63.20;;;;;;4736146;59;21528;-28
2022/08/29 00:15:54;;;;;;;14.90;13.40;;;26.40;63.20;;;;;;4808155;55;20987;-28
2022/08/29 00:20:55;;;;;;;14.05;12.75;;;26.50;63.40;;;;;;4743528;55;20987;-31
2022/08/29 00:25:56;;;;;;;14.25;12.85;;;26.40;63.30;;;;;;4744257;55;21035;-27
2022/08/29 00:30:57;;;;;;;14.48;13.18;;;26.50;63.30;;;;;;4757038;55;21007;-36
2022/08/29 00:35:57;;;;;;;14.50;13.10;;;26.50;63.30;;;;;;4744693;55;21051;-35
2022/08/29 00:40:58;;;;;;;13.77;12.48;;;26.50;63.30;;;;;;4788809;55;21506;-34
2022/08/29 00:46:27;;;;;;;14.18;12.68;;;26.50;63.30;;;;;;4754242;55;21047;-28
2022/08/29 00:51:27;;;;;;;14.05;12.57;;;26.50;63.40;;;;;;4748884;55;21023;-36
2022/08/29 00:56:30;;;;;;;13.82;12.43;;;26.50;63.40;;;;;;4758310;55;21510;-31
2022/08/29 01:01:31;;;;;;;13.50;12.15;;;26.50;63.30;;;;;;4751257;55;20972;-34
2022/08/29 01:06:33;;;;;;;13.30;11.98;;;26.40;63.30;;;;;;4750807;55;21043;-34
2022/08/29 01:16:57;;;;;;;13.50;12.25;;;26.40;63.30;;;;;;4736052;55;21019;-30
2022/08/29 01:22:11;;;;;;;13.25;11.95;;;26.50;63.30;;;;;;4766124;55;20995;-35
2022/08/29 01:27:13;;;;;;;12.98;11.68;;;26.40;63.30;;;;;;4743912;55;21054;-29
2022/08/29 01:32:14;;;;;;;13.05;11.85;;;26.50;63.40;;;;;;4744753;55;21565;-31
2022/08/29 01:37:16;;;;;;;12.98;11.80;;;26.50;63.50;;;;;;4735876;59;21513;-34
2022/08/29 01:42:20;;;;;;;13.05;11.75;;;26.50;63.30;;;;;;4787644;55;20999;-29
2022/08/29 01:47:23;;;;;;;12.48;11.35;;;26.40;63.30;;;;;;4736347;59;20983;-36
2022/08/29 01:52:27;;;;;;;13.15;11.73;;;26.40;63.30;;;;;;4736997;59;21063;-27
2022/08/29 01:57:28;;;;;;;13.70;12.30;;;26.40;63.30;;;;;;4736173;59;21008;-31
2022/08/29 02:02:29;;;;;;;12.85;11.60;;;26.50;63.30;;;;;;4755979;55;21072;-26
2022/08/29 02:07:30;;;;;;;12.98;11.75;;;26.50;63.30;;;;;;4754672;55;21501;-27
2022/08/29 02:12:31;;;;;;;13.25;11.90;;;26.50;63.30;;;;;;4749688;55;21007;-27
2022/08/29 02:17:32;;;;;;;13.02;11.82;;;26.50;63.30;;;;;;4735854;55;21489;-27
2022/08/29 02:22:34;;;;;;;12.37;11.20;;;26.40;63.20;;;;;;4777366;55;20995;-27
2022/08/29 02:27:35;;;;;;;12.00;10.85;;;26.50;63.30;;;;;;4755644;55;20992;-29
2022/08/29 02:32:36;;;;;;;13.10;11.20;;;26.50;63.30;;;;;;4761335;55;20999;-29
2022/08/29 02:37:37;;;;;;;11.40;10.40;;;26.40;63.20;;;;;;4735772;59;21019;-31
2022/08/29 02:42:37;;;;;;;12.05;10.88;;;26.40;63.20;;;;;;4776421;55;20996;-33
2022/08/29 02:47:39;;;;;;;12.37;11.18;;;26.40;63.30;;;;;;4740878;55;20971;-26
2022/08/29 02:52:41;;;;;;;11.65;10.55;;;26.50;63.30;;;;;;4754432;55;21481;-32
2022/08/29 02:57:42;;;;;;;12.35;11.18;;;26.40;63.20;;;;;;4735523;55;21059;-36
2022/08/29 03:02:45;;;;;;;11.85;10.75;;;26.40;63.20;;;;;;4778440;55;22207;-34
2022/08/29 03:07:46;;;;;;;11.57;10.50;;;26.40;63.20;;;;;;4776592;55;21570;-35
2022/08/29 03:12:47;;;;;;;11.45;10.35;;;26.40;63.30;;;;;;4752115;55;21541;-30
2022/08/29 03:17:49;;;;;;;11.57;10.48;;;26.40;63.20;;;;;;4793149;55;21548;-28
2022/08/29 03:22:52;;;;;;;12.05;10.95;;;26.40;63.20;;;;;;4778427;55;21106;-32
2022/08/29 03:27:53;;;;;;;12.30;11.10;;;26.40;63.10;;;;;;4743095;55;21489;-30
2022/08/29 03:32:56;;;;;;;11.25;10.05;;;26.40;63.10;;;;;;4773337;55;20999;-34
2022/08/29 03:37:57;;;;;;;10.63;9.73;;;26.40;63.10;;;;;;4765578;55;21469;-32
2022/08/29 03:42:58;;;;;;;10.93;9.82;;;26.40;63.10;;;;;;4738546;55;21110;-32
2022/08/29 03:47:58;;;;;;;10.68;9.68;;;26.40;63.10;;;;;;4743587;55;20998;-34
2022/08/29 03:52:59;;;;;;;11.35;10.35;;;26.40;63.00;;;;;;4746764;55;21015;-33
2022/08/29 03:58:00;;;;;;;11.30;10.20;;;26.40;63.00;;;;;;4739770;55;21494;-33
2022/08/29 04:03:01;;;;;;;10.50;9.50;;;26.40;62.90;;;;;;4747258;55;20995;-33
2022/08/29 04:08:02;;;;;;;10.95;9.93;;;26.40;63.00;;;;;;4776060;55;21478;-33
2022/08/29 04:13:04;;;;;;;11.20;10.13;;;26.40;63.00;;;;;;4764761;55;21086;-28
2022/08/29 04:18:07;;;;;;;11.35;10.25;;;26.40;63.00;;;;;;4798698;55;21510;-31
2022/08/29 04:23:09;;;;;;;11.38;10.20;;;26.40;62.90;;;;;;4781643;55;21063;-27
2022/08/29 04:28:12;;;;;;;10.73;9.73;;;26.40;62.90;;;;;;4749694;55;21568;-32
2022/08/29 04:33:13;;;;;;;9.63;8.82;;;26.40;62.90;;;;;;4759713;55;21490;-34
2022/08/29 04:38:14;;;;;;;10.13;9.13;;;26.40;62.80;;;;;;4779111;55;21121;-35
2022/08/29 04:43:15;;;;;;;9.93;9.02;;;26.40;62.80;;;;;;4780146;55;21556;-36
2022/08/29 04:48:17;;;;;;;10.32;9.32;;;26.40;62.80;;;;;;4738820;55;21051;-32
2022/08/29 04:53:17;;;;;;;10.40;9.48;;;26.40;63.40;;;;;;4739847;55;21525;-31
2022/08/29 04:58:18;;;;;;;10.68;9.68;;;26.40;62.70;;;;;;4737906;55;21082;-31
2022/08/29 05:03:21;;;;;;;10.20;9.30;;;26.40;63.40;;;;;;4736442;59;21031;-33
2022/08/29 05:08:22;;;;;;;10.15;9.15;;;26.40;62.60;;;;;;4754397;55;21016;-30
2022/08/29 05:13:23;;;;;;;10.02;9.10;;;26.40;62.60;;;;;;4737390;55;21062;-35
2022/08/29 05:18:24;;;;;;;9.88;9.05;;;26.40;62.60;;;;;;4763452;55;21075;-30
2022/08/29 05:23:25;;;;;;;9.23;8.32;;;26.40;62.50;;;;;;4735763;59;20992;-29
2022/08/29 05:28:26;;;;;;;10.82;9.43;;;26.40;62.50;;;;;;4737766;55;21470;-29
2022/08/29 05:33:27;;;;;;;10.63;9.15;;;26.40;62.50;;;;;;4773355;55;21497;-30
2022/08/29 05:38:28;;;;;;;11.32;9.45;;;26.40;63.10;;;;;;4735196;59;21012;-32
2022/08/29 05:43:30;;;;;;;9.80;8.90;;;26.40;62.40;;;;;;4763222;55;21044;-38
2022/08/29 05:48:32;;;;;;;9.75;8.85;;;26.40;62.40;;;;;;4737298;55;21062;-35
2022/08/29 05:53:34;;;;;;;9.40;8.57;;;26.30;62.40;;;;;;4761164;55;20998;-30
2022/08/29 05:58:35;;;;;;;9.23;8.40;;;26.30;62.40;;;;;;4735757;59;21035;-27
2022/08/29 06:03:36;;;;;;;10.07;9.05;;;26.30;62.40;;;;;;4758674;55;21067;-25
2022/08/29 06:08:40;;;;;;;10.35;9.27;;;26.30;62.40;;;;;;4771270;55;21501;-29
2022/08/29 06:13:40;;;;;;;10.95;9.85;;;26.40;62.40;;;;;;4756058;55;20992;-28
2022/08/29 06:18:41;;;;;;;10.40;9.30;;;26.30;62.30;;;;;;4781828;55;21553;-26
2022/08/29 06:23:43;;;;;;;11.50;9.07;;;26.30;62.40;;;;;;4775293;55;20979;-28
2022/08/29 06:28:45;;;;;;;10.13;9.13;;;26.30;62.30;;;;;;4755335;55;21063;-30
2022/08/29 06:33:49;;;;;;;10.00;9.00;;;26.40;62.30;;;;;;4806445;55;20987;-29
2022/08/29 06:38:51;;;;;;;11.32;9.70;;;26.40;62.40;;;;;;4748251;55;21027;-28
2022/08/29 06:43:53;;;;;;;14.40;9.27;;;26.30;62.30;;;;;;4737138;55;20996;-34
2022/08/29 06:48:56;;;;;;;10.75;9.50;;;26.40;62.40;;;;;;4752657;55;21003;-31
2022/08/29 06:53:57;;;;;;;10.85;9.65;;;26.30;62.30;;;;;;4749294;55;21038;-28
2022/08/29 06:58:58;;;;;;;11.60;10.02;;;26.30;62.30;;;;;;4735082;59;21126;-28
2022/08/29 07:03:59;;;;;;;32.63;17.20;;;26.40;62.40;;;;;;4746206;55;20979;-27
2022/08/29 07:09:00;;;;;;;34.08;21.52;;;26.40;62.30;;;;;;4739319;55;21498;-35
2022/08/29 07:14:03;;;;;;;43.30;25.85;;;26.30;62.90;;;;;;4736346;59;21043;-35
2022/08/29 07:19:05;;;;;;;47.08;28.38;;;26.30;62.30;;;;;;4766844;55;22537;-34
2022/08/29 07:24:07;;;;;;;47.55;29.55;;;26.40;62.40;;;;;;4750956;55;21019;-34
2022/08/29 07:29:14;;;;;;;45.83;28.38;;;26.30;62.40;;;;;;4752607;55;20999;-27
2022/08/29 07:34:15;;;;;;;54.22;27.37;;;26.30;62.60;;;;;;4743810;55;21008;-34
2022/08/29 07:39:18;;;;;;;37.53;26.33;;;26.30;62.30;;;;;;4742162;55;21062;-39
2022/08/29 07:44:19;;;;;;;39.97;25.45;;;26.30;62.30;;;;;;4755423;55;21497;-28
2022/08/29 07:49:20;;;;;;;40.40;24.73;;;26.40;61.70;;;;;;4807185;55;21035;-32
2022/08/29 07:54:21;;;;;;;38.65;26.75;;;26.40;61.60;;;;;;4819785;55;21019;-27
2022/08/29 07:59:22;;;;;;;39.63;24.20;;;26.40;61.60;;;;;;4778734;55;21589;-30
2022/08/29 08:04:23;;;;;;;38.83;25.85;;;26.40;61.50;;;;;;4752649;55;21015;-30
2022/08/29 08:09:24;;;;;;;38.83;25.83;;;26.40;61.60;;;;;;4746702;55;21111;-27
2022/08/29 08:14:24;;;;;;;54.28;28.02;;;26.40;61.50;;;;;;4739801;55;22159;-28
2022/08/29 08:19:26;;;;;;;58.13;29.55;;;26.50;61.70;;;;;;4736060;59;21395;-27
2022/08/29 08:24:26;;;;;;;60.50;31.15;;;26.50;61.20;;;;;;4735771;55;21703;-26
2022/08/29 08:29:27;;;;;;;54.42;28.95;;;26.50;61.50;;;;;;4740552;55;21089;-26
2022/08/29 08:34:29;;;;;;;67.68;31.73;;;26.50;61.10;;;;;;4736251;59;21668;-34
2022/08/29 08:39:29;;;;;;;68.82;31.25;;;26.60;61.70;;;;;;4774145;55;21528;-27
2022/08/29 08:44:54;;;;;;;80.80;35.97;;;26.60;61.70;;;;;;4776439;55;20983;-26
2022/08/29 08:50:59;;;;;;;77.50;36.70;;;26.60;61.40;;;;;;4769577;55;21549;-28
2022/08/29 08:56:06;;;;;;;83.07;40.93;;;26.70;61.80;;;;;;4735915;59;21011;-27
2022/08/29 09:01:36;;;;;;;87.65;47.72;;;26.70;62.00;;;;;;4759225;55;20983;-29
2022/08/29 09:11:54;;;;;;;89.28;51.22;;;26.80;62.20;;;;;;4735631;55;21055;-28
2022/08/29 09:16:57;;;;;;;88.55;53.17;;;26.80;62.60;;;;;;4760557;55;21521;-31
2022/08/29 09:22:21;;;;;;;90.20;51.75;;;26.90;62.70;;;;;;4775875;55;21043;-34
2022/08/29 09:27:27;;;;;;;83.18;49.38;;;26.80;62.50;;;;;;4768520;55;21502;-31
2022/08/29 09:32:28;;;;;;;77.32;48.70;;;26.80;62.40;;;;;;4736154;59;20983;-34
2022/08/29 09:37:33;;;;;;;76.45;47.33;;;26.80;62.30;;;;;;4765181;55;21509;-33
2022/08/29 09:42:38;;;;;;;68.77;43.60;;;26.90;62.30;;;;;;4737337;55;21621;-35
2022/08/29 09:47:39;;;;;;;65.32;43.50;;;26.90;62.30;;;;;;4927393;55;21159;-28
2022/08/29 09:52:59;;;;;;;63.20;43.17;;;26.90;62.40;;;;;;4758903;55;21047;-33
2022/08/29 10:01:32;;;;;;;65.25;42.25;;;26.90;62.80;;;;;;4735653;59;21011;-34
2022/08/29 10:06:40;;;;;;;63.85;42.45;;;26.90;63.10;;;;;;4759440;55;21500;-37
2022/08/29 10:11:52;;;;;;;68.43;45.50;;;27.00;63.20;;;;;;4750672;55;21079;-37
2022/08/29 10:23:13;;;;;;;63.13;42.85;;;27.00;62.90;;;;;;4763731;55;21077;-37
2022/08/29 10:31:02;;;;;;;65.45;43.70;;;27.00;62.90;;;;;;4736586;55;21063;-33
2022/08/29 10:36:28;;;;;;;73.07;48.42;;;27.00;63.10;;;;;;4762722;55;21090;-34
2022/08/29 10:41:42;;;;;;;65.35;47.80;;;27.10;62.90;;;;;;4741217;55;21481;-33
2022/08/29 10:47:50;;;;;;;73.32;52.05;;;27.10;62.80;;;;;;4736159;59;21027;-27
2022/08/29 10:53:03;;;;;;;65.65;48.08;;;27.10;62.90;;;;;;4775612;55;21587;-29
2022/08/29 10:58:37;;;;;;;66.97;48.63;;;27.10;63.20;;;;;;4767902;55;21126;-31
2022/08/29 11:04:40;;;;;;;65.57;48.53;;;27.20;63.90;;;;;;4745685;55;21577;-41
2022/08/29 11:09:59;;;;;;;70.22;50.33;;;27.20;63.50;;;;;;4748861;55;20987;-31
2022/08/29 11:15:25;;;;;;;72.30;49.42;;;27.20;63.00;;;;;;4736854;55;21510;-36
2022/08/29 11:20:32;;;;;;;67.75;48.90;;;27.20;63.00;;;;;;4769641;55;21616;-34
2022/08/29 11:25:35;;;;;;;65.32;46.97;;;27.20;63.00;;;;;;4758821;55;21470;-30
2022/08/29 11:31:18;;;;;;;68.28;47.53;;;27.20;63.00;;;;;;4734162;55;21003;-31
2022/08/29 11:41:12;;;;;;;64.75;47.08;;;27.10;62.90;;;;;;4762332;55;21103;-29
2022/08/29 11:46:15;;;;;;;68.05;45.95;;;27.10;62.90;;;;;;4746993;55;21245;-33
2022/08/29 11:51:37;;;;;;;59.65;43.40;;;27.10;63.60;;;;;;4736277;59;20983;-38
2022/08/29 11:56:41;;;;;;;59.72;43.75;;;27.10;62.90;;;;;;4765936;55;21020;-29
2022/08/29 12:01:59;;;;;;;53.97;41.47;;;27.10;62.90;;;;;;4753494;55;20995;-37
2022/08/29 12:07:02;;;;;;;52.45;41.28;;;27.10;63.10;;;;;;4760762;55;21127;-29
2022/08/29 12:12:15;;;;;;;49.97;38.20;;;27.20;63.50;;;;;;4752056;55;20960;-37
2022/08/29 12:17:41;;;;;;;46.50;36.17;;;27.20;63.40;;;;;;4777116;55;21007;-35
2022/08/29 12:22:54;;;;;;;40.08;29.15;;;27.20;63.40;;;;;;4736648;55;21433;-32
2022/08/29 12:29:06;;;;;;;31.92;27.83;;;27.20;63.90;;;;;;4739884;55;21049;-36
2022/08/29 12:34:33;;;;;;;28.75;23.30;;;27.20;63.20;;;;;;4738407;55;21585;-37
2022/08/29 12:43:22;;;;;;;27.83;23.35;;;27.20;63.20;;;;;;4780328;55;20983;-31
2022/08/29 12:48:30;;;;;;;34.45;26.42;;;27.20;63.40;;;;;;4756158;55;21003;-34
2022/08/29 12:53:33;;;;;;;34.03;28.55;;;27.30;64.00;;;;;;4762651;55;20971;-28
2022/08/29 12:58:53;;;;;;;43.97;32.88;;;27.30;63.90;;;;;;4768121;55;21529;-35
2022/08/29 13:04:13;;;;;;;47.17;34.38;;;27.30;64.30;;;;;;4743046;55;20972;-34
2022/08/29 13:09:57;;;;;;;44.97;34.35;;;27.30;64.10;;;;;;4771518;55;20995;-35
2022/08/29 13:15:45;;;;;;;41.92;33.95;;;27.30;63.80;;;;;;4744957;55;21662;-34
2022/08/29 13:21:30;;;;;;;42.88;34.13;;;27.30;63.90;;;;;;4736261;55;21051;-32
2022/08/29 13:26:32;;;;;;;36.70;30.37;;;27.40;63.80;;;;;;4760250;55;21051;-28
2022/08/29 13:31:37;;;;;;;36.95;30.12;;;27.40;63.50;;;;;;4747683;55;21544;-34
2022/08/29 13:38:30;;;;;;;37.58;28.12;;;27.40;62.90;;;;;;4747198;55;21087;-36
2022/08/29 13:43:48;;;;;;;32.45;25.85;;;27.30;63.10;;;;;;4838736;55;21527;-36
2022/08/29 13:49:00;;;;;;;30.08;24.48;;;27.30;63.00;;;;;;4736285;59;21007;-33
2022/08/29 13:54:00;;;;;;;28.65;24.30;;;27.30;62.90;;;;;;4773207;55;21010;-32
2022/08/29 13:59:02;;;;;;;32.50;26.00;;;27.30;63.00;;;;;;4763744;55;21304;-27
2022/08/29 14:04:03;;;;;;;34.97;28.42;;;27.30;63.10;;;;;;4743207;55;21078;-27
2022/08/29 14:09:04;;;;;;;33.60;28.00;;;27.30;63.10;;;;;;4757297;55;21051;-26
2022/08/29 14:14:04;;;;;;;33.67;28.05;;;27.20;63.10;;;;;;4773806;55;20980;-28
2022/08/29 14:19:05;;;;;;;34.00;27.83;;;27.20;63.90;;;;;;4758131;55;20988;-26
2022/08/29 14:24:06;;;;;;;36.63;27.37;;;27.20;63.40;;;;;;4736805;59;21103;-26
2022/08/29 14:29:08;;;;;;;33.47;27.23;;;27.20;63.50;;;;;;4753462;55;21031;-26
2022/08/29 14:34:12;;;;;;;33.20;27.23;;;27.10;63.50;;;;;;4742939;55;21071;-28
2022/08/29 14:39:13;;;;;;;31.70;26.20;;;27.10;63.70;;;;;;4735937;59;21525;-37
2022/08/29 14:44:13;;;;;;;32.40;26.80;;;27.10;63.80;;;;;;4797297;55;21095;-31
2022/08/29 14:49:14;;;;;;;29.37;26.08;;;27.10;63.90;;;;;;4755498;55;20992;-27
2022/08/29 14:54:16;;;;;;;30.27;25.77;;;27.00;63.90;;;;;;4810601;55;21478;-32
2022/08/29 14:59:19;;;;;;;33.80;26.48;;;27.00;63.90;;;;;;4780649;55;22155;-30
2022/08/29 15:04:23;;;;;;;40.28;27.15;;;27.00;64.00;;;;;;4752746;55;21459;-32
2022/08/29 15:09:24;;;;;;;31.37;27.17;;;27.00;64.00;;;;;;4747879;55;21509;-33
2022/08/29 15:14:25;;;;;;;32.58;25.98;;;27.00;64.20;;;;;;4751130;55;21003;-28
2022/08/29 15:19:26;;;;;;;30.83;25.67;;;27.00;64.10;;;;;;4745024;55;21043;-26
2022/08/29 15:24:26;;;;;;;30.30;25.02;;;27.00;64.90;;;;;;4748222;55;21007;-31
2022/08/29 15:29:28;;;;;;;33.17;26.23;;;27.00;64.30;;;;;;4736232;55;21039;-28
2022/08/29 15:34:29;;;;;;;31.35;25.65;;;26.90;64.20;;;;;;4737001;55;21120;-30
2022/08/29 15:39:31;;;;;;;31.98;26.75;;;26.90;64.30;;;;;;4750772;55;21505;-36
2022/08/29 15:44:33;;;;;;;30.37;27.17;;;26.90;64.30;;;;;;4737371;55;21027;-38
2022/08/29 15:49:34;;;;;;;29.98;26.12;;;26.90;64.30;;;;;;4758073;55;21007;-35
2022/08/29 15:54:35;;;;;;;29.05;25.75;;;26.90;64.30;;;;;;4745743;55;21068;-38
2022/08/29 15:59:35;;;;;;;29.42;26.27;;;26.90;64.30;;;;;;4762970;55;20987;-27
2022/08/29 16:04:38;;;;;;;28.60;25.50;;;26.90;64.40;;;;;;4756352;55;21015;-31
2022/08/29 16:09:40;;;;;;;29.25;25.45;;;26.90;64.40;;;;;;4744794;55;21478;-30
2022/08/29 16:14:41;;;;;;;29.15;26.02;;;26.90;64.40;;;;;;4735794;59;21075;-31
2022/08/29 16:19:41;;;;;;;28.55;24.98;;;26.90;64.40;;;;;;4770026;55;21023;-31
2022/08/29 16:24:45;;;;;;;29.95;25.70;;;26.90;64.40;;;;;;4745984;55;21501;-30
2022/08/29 16:29:46;;;;;;;28.23;25.02;;;26.90;64.40;;;;;;4752403;55;21051;-29
2022/08/29 16:34:47;;;;;;;28.80;25.73;;;26.90;64.30;;;;;;4743304;55;21055;-36
2022/08/29 16:39:48;;;;;;;29.15;25.73;;;26.90;64.40;;;;;;4760778;55;20983;-30
2022/08/29 16:44:49;;;;;;;28.08;24.85;;;26.90;64.40;;;;;;4747205;55;20983;-35
2022/08/29 16:49:49;;;;;;;27.50;24.60;;;26.80;64.30;;;;;;4762046;55;21003;-33
2022/08/29 16:54:50;;;;;;;29.23;26.10;;;26.80;64.30;;;;;;4744286;55;21039;-31
2022/08/29 16:59:51;;;;;;;27.17;24.20;;;26.80;64.40;;;;;;4769111;55;21063;-30
2022/08/29 17:04:52;;;;;;;29.77;25.70;;;26.80;64.30;;;;;;4753421;55;21019;-31
2022/08/29 17:19:55;;;;;;;27.60;24.17;;;26.80;64.30;;;;;;4757747;55;20987;-28
2022/08/29 17:24:56;;;;;;;26.48;23.77;;;26.80;64.30;;;;;;4765744;55;21526;-27
2022/08/29 17:30:00;;;;;;;30.73;25.60;;;26.80;64.30;;;;;;4744268;55;21035;-30
2022/08/29 17:35:01;;;;;;;27.70;24.70;;;26.90;64.40;;;;;;4740137;55;21008;-30
2022/08/29 17:40:06;;;;;;;28.12;25.12;;;26.80;64.30;;;;;;4736266;59;20984;-30
2022/08/29 17:45:07;;;;;;;26.70;23.80;;;26.80;64.30;;;;;;4736544;59;20992;-27
2022/08/29 17:50:08;;;;;;;26.92;24.12;;;26.80;64.30;;;;;;4736672;59;20962;-26
2022/08/29 17:55:09;;;;;;;27.40;24.20;;;26.80;64.40;;;;;;4744967;55;21000;-29
2022/08/29 18:00:12;;;;;;;26.60;23.77;;;26.80;64.30;;;;;;4775335;55;21478;-30
2022/08/29 18:05:13;;;;;;;28.05;24.30;;;26.80;64.30;;;;;;4737150;55;21493;-29
2022/08/29 18:10:16;;;;;;;26.02;23.38;;;26.80;64.40;;;;;;4758333;55;21067;-26
2022/08/29 18:15:17;;;;;;;26.98;24.10;;;26.80;64.30;;;;;;4754656;55;21003;-27
2022/08/29 18:20:21;;;;;;;26.62;23.80;;;26.80;64.30;;;;;;4759724;55;21015;-35
2022/08/29 18:25:22;;;;;;;25.90;23.10;;;26.80;64.30;;;;;;4750817;55;21530;-29
2022/08/29 18:30:23;;;;;;;27.13;24.35;;;26.80;64.40;;;;;;4765980;55;21043;-27
2022/08/29 18:35:24;;;;;;;25.75;23.05;;;26.80;64.30;;;;;;4787890;55;21493;-29
2022/08/29 18:40:25;;;;;;;26.45;23.60;;;26.80;64.30;;;;;;4744317;55;21043;-33
2022/08/29 18:45:26;;;;;;;26.67;23.80;;;26.80;64.40;;;;;;4738911;55;21462;-36
2022/08/29 18:50:33;;;;;;;25.73;22.92;;;26.80;64.40;;;;;;4746668;55;20979;-29
2022/08/29 18:55:34;;;;;;;25.65;22.95;;;26.80;64.30;;;;;;4735800;55;21019;-33
2022/08/29 19:00:35;;;;;;;25.08;22.48;;;26.80;64.30;;;;;;4774046;55;20983;-32
2022/08/29 19:05:40;;;;;;;24.95;22.25;;;26.80;64.40;;;;;;4744991;55;21008;-33
2022/08/29 19:10:44;;;;;;;25.00;22.27;;;26.80;64.30;;;;;;4760968;55;21001;-34
2022/08/29 19:15:46;;;;;;;24.75;22.15;;;26.80;64.30;;;;;;4757569;55;21485;-27
2022/08/29 19:21:01;;;;;;;24.80;22.20;;;26.80;64.40;;;;;;4739299;55;21504;-28
2022/08/29 19:26:06;;;;;;;23.93;21.03;;;26.80;64.40;;;;;;4757636;55;21039;-29
2022/08/29 19:31:06;;;;;;;24.67;22.05;;;26.80;64.40;;;;;;4736513;59;20999;-29
2022/08/29 19:36:09;;;;;;;24.33;21.70;;;26.80;64.40;;;;;;4745815;55;21031;-29
2022/08/29 19:41:10;;;;;;;25.98;21.92;;;26.80;64.30;;;;;;4736365;56;21469;-31
2022/08/29 19:46:16;;;;;;;25.42;22.33;;;26.80;64.40;;;;;;4767610;55;21019;-28
2022/08/29 19:51:19;;;;;;;23.43;20.97;;;26.80;64.40;;;;;;4743722;55;20983;-29
2022/08/29 19:56:20;;;;;;;23.12;20.62;;;26.80;64.40;;;;;;4763208;55;21031;-33
2022/08/29 20:01:21;;;;;;;22.10;19.73;;;26.80;64.40;;;;;;4751525;55;20975;-34
2022/08/29 20:06:22;;;;;;;22.95;20.45;;;26.80;64.30;;;;;;4736509;55;21039;-34
2022/08/29 20:11:25;;;;;;;22.25;19.85;;;26.80;64.30;;;;;;4750706;55;21561;-36
2022/08/29 20:16:31;;;;;;;21.83;19.55;;;26.80;64.40;;;;;;4788553;55;21121;-29
2022/08/29 20:21:33;;;;;;;22.90;20.50;;;26.80;64.40;;;;;;4773213;55;20992;-27
2022/08/29 20:26:35;;;;;;;22.50;20.10;;;26.80;64.30;;;;;;4772263;55;21753;-29
2022/08/29 20:31:37;;;;;;;22.08;19.58;;;26.80;64.30;;;;;;4777541;55;21027;-25
2022/08/29 20:42:00;;;;;;;22.50;20.20;;;26.80;64.30;;;;;;4736337;55;21526;-26
2022/08/29 20:47:02;;;;;;;21.73;19.55;;;26.70;64.20;;;;;;4736363;59;21576;-31
2022/08/29 20:52:04;;;;;;;21.00;18.83;;;26.70;64.20;;;;;;4747734;55;20992;-33
2022/08/29 20:57:06;;;;;;;21.52;19.33;;;26.70;64.20;;;;;;4753590;55;21047;-26
2022/08/29 21:02:08;;;;;;;21.40;19.20;;;26.70;64.20;;;;;;4736202;59;20999;-27
2022/08/29 21:07:12;;;;;;;20.90;18.83;;;26.80;64.20;;;;;;4735796;59;21512;-27
2022/08/29 21:12:13;;;;;;;20.60;18.55;;;26.70;64.20;;;;;;4736605;55;21052;-34
2022/08/29 21:17:17;;;;;;;19.70;17.75;;;26.70;64.10;;;;;;4751384;55;21023;-32
2022/08/29 21:22:17;;;;;;;20.90;18.80;;;26.70;64.10;;;;;;4823876;55;21581;-34
2022/08/29 21:27:18;;;;;;;20.40;18.30;;;26.70;64.10;;;;;;4752809;55;21000;-31
2022/08/29 21:32:21;;;;;;;21.45;18.00;;;26.70;64.10;;;;;;4736306;59;20979;-34
2022/08/29 21:37:23;;;;;;;19.87;17.85;;;26.70;64.10;;;;;;4747617;55;21505;-34
2022/08/29 21:42:24;;;;;;;21.35;17.65;;;26.70;64.20;;;;;;4775606;55;22054;-29
2022/08/29 21:47:25;;;;;;;19.90;17.95;;;26.70;64.20;;;;;;4740443;55;21083;-28
2022/08/29 21:52:26;;;;;;;19.77;17.75;;;26.70;64.10;;;;;;4745539;55;20968;-29
2022/08/29 22:02:47;;;;;;;20.25;18.25;;;26.70;64.20;;;;;;4736248;55;21903;-34
2022/08/29 22:07:48;;;;;;;19.15;17.20;;;26.70;64.10;;;;;;4746653;55;21158;-29
2022/08/29 22:12:49;;;;;;;19.25;17.25;;;26.70;64.20;;;;;;4769389;55;21532;-26
2022/08/29 22:17:50;;;;;;;18.70;16.80;;;26.70;64.20;;;;;;4735656;59;21115;-28
2022/08/29 22:22:51;;;;;;;19.80;17.80;;;26.70;64.10;;;;;;4744365;55;21012;-27
2022/08/29 22:27:52;;;;;;;18.42;16.55;;;26.70;64.10;;;;;;4783052;55;21043;-27
2022/08/29 22:32:55;;;;;;;18.83;16.92;;;26.70;64.20;;;;;;4762278;55;21007;-28
2022/08/29 22:37:57;;;;;;;18.25;16.48;;;26.70;64.20;;;;;;4752250;55;21075;-29
2022/08/29 22:42:58;;;;;;;19.08;17.08;;;26.70;64.20;;;;;;4764289;55;21557;-25
2022/08/29 22:47:58;;;;;;;18.27;16.40;;;26.70;64.20;;;;;;4740658;55;21058;-28
2022/08/29 22:53:00;;;;;;;19.48;16.15;;;26.70;64.10;;;;;;4774768;55;21031;-29
2022/08/29 22:58:03;;;;;;;18.12;16.42;;;26.70;64.10;;;;;;4735733;56;21509;-30
2022/08/29 23:03:05;;;;;;;18.33;16.58;;;26.70;63.90;;;;;;4747037;55;21035;-36
2022/08/29 23:08:06;;;;;;;17.37;15.65;;;26.60;64.10;;;;;;4760179;55;21616;-27
2022/08/29 23:13:07;;;;;;;18.37;16.48;;;26.70;64.20;;;;;;4788965;55;21046;-27
2022/08/29 23:18:08;;;;;;;17.73;15.93;;;26.70;64.10;;;;;;4736905;55;21006;-29
2022/08/29 23:23:11;;;;;;;16.92;15.32;;;26.70;64.10;;;;;;4753829;55;20980;-32
2022/08/29 23:28:12;;;;;;;17.65;15.95;;;26.70;64.10;;;;;;4756390;55;21000;-28
2022/08/29 23:33:15;;;;;;;17.60;15.88;;;26.70;64.10;;;;;;4737120;59;20971;-26
2022/08/29 23:38:16;;;;;;;16.85;15.25;;;26.60;64.00;;;;;;4754306;55;21354;-36
2022/08/29 23:43:19;;;;;;;17.23;15.57;;;26.70;64.10;;;;;;4762784;55;20983;-38
2022/08/29 23:48:22;;;;;;;16.12;14.60;;;26.70;64.00;;;;;;4751436;55;21497;-27
2022/08/29 23:53:23;;;;;;;16.65;15.05;;;26.70;64.00;;;;;;4780973;55;21470;-28
2022/08/29 23:58:24;;;;;;;18.37;15.18;;;26.60;63.90;;;;;;4747675;55;20995;-28
